Beijing Daxing International Airport


Codes: ZBAD/PKX
Name: Beijing Daxing International Airport
City: Beijing
Country: China
Elevation: 98 ft.

Photos at Beijing Daxing International Airport


   Photos courtesy of SpottingLog. You can add your own sightings and photos by signing up for a free trial today.



No photos found.

Weather at Beijing Daxing International Airport


Time (UTC)DescriptionTempratureWindCloud coverageVisibilityPressureHumidity
19-Apr-2024 06:00Overcast Clouds22°C13 mph, E100%10000m1011hPa22%
19-Apr-2024 09:00Overcast Clouds20°C13 mph, SE100%10000m1010hPa25%
19-Apr-2024 12:00Overcast Clouds16°C9 mph, E100%10000m1010hPa32%
19-Apr-2024 15:00Overcast Clouds14°C4 mph, NE91%10000m1010hPa38%
19-Apr-2024 18:00Overcast Clouds14°C9 mph, NE95%10000m1009hPa51%
19-Apr-2024 21:00Overcast Clouds13°C9 mph, NE100%10000m1008hPa62%
20-Apr-2024 00:00Overcast Clouds14°C11 mph, NE98%10000m1010hPa56%
20-Apr-2024 03:00Broken Clouds20°C11 mph, N57%10000m1009hPa36%
20-Apr-2024 06:00Broken Clouds22°C11 mph, N65%10000m1009hPa30%
20-Apr-2024 09:00Few Clouds23°C9 mph, NE14%10000m1008hPa29%
20-Apr-2024 12:00Scattered Clouds17°C7 mph, SE39%10000m1010hPa45%
20-Apr-2024 15:00Overcast Clouds14°C2 mph, S100%10000m1012hPa52%
20-Apr-2024 18:00Overcast Clouds12°C7 mph, S94%10000m1012hPa58%
20-Apr-2024 21:00Overcast Clouds11°C4 mph, S87%10000m1012hPa58%
21-Apr-2024 00:00Scattered Clouds16°C4 mph, SW50%10000m1013hPa44%
21-Apr-2024 03:00Scattered Clouds23°C9 mph, S34%10000m1012hPa32%
21-Apr-2024 06:00Broken Clouds27°C11 mph, S59%10000m1009hPa24%
21-Apr-2024 09:00Broken Clouds26°C11 mph, S74%10000m1007hPa23%
21-Apr-2024 12:00Broken Clouds19°C13 mph, SE76%10000m1008hPa34%
21-Apr-2024 15:00Overcast Clouds16°C7 mph, S95%10000m1009hPa56%
21-Apr-2024 18:00Overcast Clouds14°C4 mph, SE97%10000m1008hPa55%
21-Apr-2024 21:00Overcast Clouds13°C7 mph, NE98%10000m1008hPa65%
22-Apr-2024 00:00Overcast Clouds16°C11 mph, NE99%10000m1009hPa58%
22-Apr-2024 03:00Scattered Clouds23°C11 mph, NE27%10000m1009hPa35%
22-Apr-2024 06:00Few Clouds26°C7 mph, E14%10000m1007hPa29%
22-Apr-2024 09:00Broken Clouds27°C7 mph, S61%10000m1004hPa28%
22-Apr-2024 12:00Broken Clouds19°C9 mph, E81%10000m1005hPa55%
22-Apr-2024 15:00Broken Clouds16°C9 mph, E68%10000m1004hPa66%
22-Apr-2024 18:00Light Rain13°C11 mph, NE69%10000m1004hPa82%
22-Apr-2024 21:00Broken Clouds15°C13 mph, N54%10000m1005hPa60%
23-Apr-2024 00:00Scattered Clouds17°C20 mph, NW33%10000m1008hPa30%
23-Apr-2024 03:00Clear Sky21°C20 mph, NW3%10000m1009hPa14%
23-Apr-2024 06:00Clear Sky24°C18 mph, NW2%10000m1007hPa9%
23-Apr-2024 09:00Clear Sky24°C13 mph, NW0%10000m1006hPa9%
23-Apr-2024 12:00Clear Sky17°C4 mph, N0%10000m1008hPa12%
23-Apr-2024 15:00Clear Sky15°C4 mph, S0%10000m1009hPa14%
23-Apr-2024 18:00Clear Sky13°C7 mph, S1%10000m1008hPa19%
23-Apr-2024 21:00Clear Sky11°C7 mph, SW0%10000m1008hPa24%
24-Apr-2024 00:00Clear Sky17°C4 mph, SW0%10000m1008hPa21%
24-Apr-2024 03:00Clear Sky25°C9 mph, SW0%10000m1007hPa14%